sensor_id;sensor_type;location;lat;lon;timestamp;temperature;humidity
15713;DHT22;7957;51.608;6.916;2023-09-18T00:02:19;19.30;99.90
15713;DHT22;7957;51.608;6.916;2023-09-18T00:04:46;19.30;99.90
15713;DHT22;7957;51.608;6.916;2023-09-18T00:07:15;19.30;99.90
15713;DHT22;7957;51.608;6.916;2023-09-18T00:09:42;19.30;99.90
15713;DHT22;7957;51.608;6.916;2023-09-18T00:12:08;19.30;99.90
15713;DHT22;7957;51.608;6.916;2023-09-18T00:14:36;19.30;99.90
15713;DHT22;7957;51.608;6.916;2023-09-18T00:17:03;19.20;99.90
15713;DHT22;7957;51.608;6.916;2023-09-18T00:19:30;19.20;99.90
15713;DHT22;7957;51.608;6.916;2023-09-18T00:21:59;19.20;99.90
15713;DHT22;7957;51.608;6.916;2023-09-18T00:24:28;19.20;99.90
15713;DHT22;7957;51.608;6.916;2023-09-18T00:26:55;19.20;99.90
15713;DHT22;7957;51.608;6.916;2023-09-18T00:29:22;19.20;99.90
15713;DHT22;7957;51.608;6.916;2023-09-18T00:31:49;19.20;99.90
15713;DHT22;7957;51.608;6.916;2023-09-18T00:34:16;19.20;99.90
15713;DHT22;7957;51.608;6.916;2023-09-18T00:36:42;19.20;99.90
15713;DHT22;7957;51.608;6.916;2023-09-18T00:39:09;19.20;99.90
15713;DHT22;7957;51.608;6.916;2023-09-18T00:41:38;19.10;99.90
15713;DHT22;7957;51.608;6.916;2023-09-18T00:44:06;19.10;99.90
15713;DHT22;7957;51.608;6.916;2023-09-18T00:46:33;19.10;99.90
15713;DHT22;7957;51.608;6.916;2023-09-18T00:49:01;19.20;99.90
15713;DHT22;7957;51.608;6.916;2023-09-18T00:51:29;19.10;99.90
15713;DHT22;7957;51.608;6.916;2023-09-18T00:53:56;19.10;99.90
15713;DHT22;7957;51.608;6.916;2023-09-18T00:56:23;19.10;99.90
15713;DHT22;7957;51.608;6.916;2023-09-18T00:58:52;19.10;99.90
15713;DHT22;7957;51.608;6.916;2023-09-18T01:01:20;19.10;99.90
15713;DHT22;7957;51.608;6.916;2023-09-18T01:03:49;19.10;99.90
15713;DHT22;7957;51.608;6.916;2023-09-18T01:06:16;19.10;99.90
15713;DHT22;7957;51.608;6.916;2023-09-18T01:08:44;19.10;99.90
15713;DHT22;7957;51.608;6.916;2023-09-18T01:11:29;19.10;99.90
15713;DHT22;7957;51.608;6.916;2023-09-18T01:14:09;19.10;99.90
15713;DHT22;7957;51.608;6.916;2023-09-18T01:16:44;19.10;99.90
15713;DHT22;7957;51.608;6.916;2023-09-18T01:19:15;19.10;99.90
15713;DHT22;7957;51.608;6.916;2023-09-18T01:21:44;19.10;99.90
15713;DHT22;7957;51.608;6.916;2023-09-18T01:24:13;19.10;99.90
15713;DHT22;7957;51.608;6.916;2023-09-18T01:26:40;19.10;99.90
15713;DHT22;7957;51.608;6.916;2023-09-18T01:29:07;19.10;99.90
15713;DHT22;7957;51.608;6.916;2023-09-18T01:31:34;19.10;99.90
15713;DHT22;7957;51.608;6.916;2023-09-18T01:34:01;19.10;99.90
15713;DHT22;7957;51.608;6.916;2023-09-18T01:36:28;19.10;99.90
15713;DHT22;7957;51.608;6.916;2023-09-18T01:38:56;19.10;99.90
15713;DHT22;7957;51.608;6.916;2023-09-18T01:41:24;19.10;99.90
15713;DHT22;7957;51.608;6.916;2023-09-18T01:43:52;19.10;99.90
15713;DHT22;7957;51.608;6.916;2023-09-18T01:46:20;19.10;99.90
15713;DHT22;7957;51.608;6.916;2023-09-18T01:48:47;19.10;99.90
15713;DHT22;7957;51.608;6.916;2023-09-18T01:51:14;19.10;99.90
15713;DHT22;7957;51.608;6.916;2023-09-18T01:53:42;19.10;99.90
15713;DHT22;7957;51.608;6.916;2023-09-18T01:56:09;19.10;99.90
15713;DHT22;7957;51.608;6.916;2023-09-18T01:58:38;19.10;99.90
15713;DHT22;7957;51.608;6.916;2023-09-18T02:01:05;19.10;99.90
15713;DHT22;7957;51.608;6.916;2023-09-18T02:03:32;19.10;99.90
15713;DHT22;7957;51.608;6.916;2023-09-18T02:05:58;19.10;99.90
15713;DHT22;7957;51.608;6.916;2023-09-18T02:08:25;19.10;99.90
15713;DHT22;7957;51.608;6.916;2023-09-18T02:10:52;19.10;99.90
15713;DHT22;7957;51.608;6.916;2023-09-18T02:13:19;19.10;99.90
15713;DHT22;7957;51.608;6.916;2023-09-18T02:15:48;19.10;99.90
15713;DHT22;7957;51.608;6.916;2023-09-18T02:18:15;19.10;99.90
15713;DHT22;7957;51.608;6.916;2023-09-18T02:20:42;19.10;99.90
15713;DHT22;7957;51.608;6.916;2023-09-18T02:23:09;19.10;99.90
15713;DHT22;7957;51.608;6.916;2023-09-18T02:25:36;19.00;99.90
15713;DHT22;7957;51.608;6.916;2023-09-18T02:28:04;19.10;99.90
15713;DHT22;7957;51.608;6.916;2023-09-18T02:30:31;19.10;99.90
15713;DHT22;7957;51.608;6.916;2023-09-18T02:33:00;19.00;99.90
15713;DHT22;7957;51.608;6.916;2023-09-18T02:35:28;19.10;99.90
15713;DHT22;7957;51.608;6.916;2023-09-18T02:37:55;19.00;99.90
15713;DHT22;7957;51.608;6.916;2023-09-18T02:40:22;19.00;99.90
15713;DHT22;7957;51.608;6.916;2023-09-18T02:42:49;19.00;99.90
15713;DHT22;7957;51.608;6.916;2023-09-18T02:45:16;19.10;99.90
15713;DHT22;7957;51.608;6.916;2023-09-18T02:47:43;19.00;99.90
15713;DHT22;7957;51.608;6.916;2023-09-18T02:50:11;19.10;99.90
15713;DHT22;7957;51.608;6.916;2023-09-18T02:52:38;19.00;99.90
15713;DHT22;7957;51.608;6.916;2023-09-18T02:55:05;19.00;99.90
15713;DHT22;7957;51.608;6.916;2023-09-18T02:57:35;19.00;99.90
15713;DHT22;7957;51.608;6.916;2023-09-18T03:00:03;19.00;99.90
15713;DHT22;7957;51.608;6.916;2023-09-18T03:02:30;19.00;99.90
15713;DHT22;7957;51.608;6.916;2023-09-18T03:04:57;19.00;99.90
15713;DHT22;7957;51.608;6.916;2023-09-18T03:07:25;19.00;99.90
15713;DHT22;7957;51.608;6.916;2023-09-18T03:09:54;19.00;99.90
15713;DHT22;7957;51.608;6.916;2023-09-18T03:12:21;19.00;99.90
15713;DHT22;7957;51.608;6.916;2023-09-18T03:14:48;19.00;99.90
15713;DHT22;7957;51.608;6.916;2023-09-18T03:17:15;19.00;99.90
15713;DHT22;7957;51.608;6.916;2023-09-18T03:19:42;19.00;99.90
15713;DHT22;7957;51.608;6.916;2023-09-18T03:22:09;19.00;99.90
15713;DHT22;7957;51.608;6.916;2023-09-18T03:24:39;19.00;99.90
15713;DHT22;7957;51.608;6.916;2023-09-18T03:27:05;19.00;99.90
15713;DHT22;7957;51.608;6.916;2023-09-18T03:29:32;19.00;99.90
15713;DHT22;7957;51.608;6.916;2023-09-18T03:31:59;19.00;99.90
15713;DHT22;7957;51.608;6.916;2023-09-18T03:34:26;19.00;99.90
15713;DHT22;7957;51.608;6.916;2023-09-18T03:36:53;19.00;99.90
15713;DHT22;7957;51.608;6.916;2023-09-18T03:39:20;19.00;99.90
15713;DHT22;7957;51.608;6.916;2023-09-18T03:41:48;19.00;99.90
15713;DHT22;7957;51.608;6.916;2023-09-18T03:44:15;19.00;99.90
15713;DHT22;7957;51.608;6.916;2023-09-18T03:46:42;19.00;99.90
15713;DHT22;7957;51.608;6.916;2023-09-18T03:49:09;19.00;99.90
15713;DHT22;7957;51.608;6.916;2023-09-18T03:51:36;19.00;99.90
15713;DHT22;7957;51.608;6.916;2023-09-18T03:54:03;19.00;99.90
15713;DHT22;7957;51.608;6.916;2023-09-18T03:56:30;19.00;99.90
15713;DHT22;7957;51.608;6.916;2023-09-18T03:58:59;19.00;99.90
15713;DHT22;7957;51.608;6.916;2023-09-18T04:01:26;19.00;99.90
15713;DHT22;7957;51.608;6.916;2023-09-18T04:03:53;19.10;99.90
15713;DHT22;7957;51.608;6.916;2023-09-18T04:06:21;19.00;99.90
15713;DHT22;7957;51.608;6.916;2023-09-18T04:08:49;19.10;99.90
15713;DHT22;7957;51.608;6.916;2023-09-18T04:11:16;19.10;99.90
15713;DHT22;7957;51.608;6.916;2023-09-18T04:13:44;19.10;99.90
15713;DHT22;7957;51.608;6.916;2023-09-18T04:16:12;19.10;99.90
15713;DHT22;7957;51.608;6.916;2023-09-18T04:18:42;19.10;99.90
15713;DHT22;7957;51.608;6.916;2023-09-18T04:21:09;19.10;99.90
15713;DHT22;7957;51.608;6.916;2023-09-18T08:22:22;20.20;99.90
15713;DHT22;7957;51.608;6.916;2023-09-18T08:24:49;20.20;99.90
15713;DHT22;7957;51.608;6.916;2023-09-18T08:27:18;20.30;99.90
15713;DHT22;7957;51.608;6.916;2023-09-18T08:29:45;20.30;99.90
15713;DHT22;7957;51.608;6.916;2023-09-18T08:32:12;20.30;99.90
15713;DHT22;7957;51.608;6.916;2023-09-18T08:34:45;20.30;99.90
15713;DHT22;7957;51.608;6.916;2023-09-18T08:37:12;20.40;99.90
15713;DHT22;7957;51.608;6.916;2023-09-18T08:39:46;20.40;99.90
15713;DHT22;7957;51.608;6.916;2023-09-18T08:42:17;20.40;99.90
15713;DHT22;7957;51.608;6.916;2023-09-18T08:44:48;20.40;99.90
15713;DHT22;7957;51.608;6.916;2023-09-18T08:47:16;20.50;99.90
15713;DHT22;7957;51.608;6.916;2023-09-18T08:49:45;20.50;99.90
15713;DHT22;7957;51.608;6.916;2023-09-18T08:52:16;20.50;99.90
15713;DHT22;7957;51.608;6.916;2023-09-18T08:54:51;20.50;99.90
15713;DHT22;7957;51.608;6.916;2023-09-18T08:57:20;20.60;99.90
15713;DHT22;7957;51.608;6.916;2023-09-18T08:59:50;20.60;99.90
15713;DHT22;7957;51.608;6.916;2023-09-18T09:02:17;20.60;99.90
15713;DHT22;7957;51.608;6.916;2023-09-18T09:04:44;20.60;99.90
15713;DHT22;7957;51.608;6.916;2023-09-18T09:07:11;20.70;99.90
15713;DHT22;7957;51.608;6.916;2023-09-18T09:09:38;20.70;99.90
15713;DHT22;7957;51.608;6.916;2023-09-18T09:12:10;20.80;99.90
15713;DHT22;7957;51.608;6.916;2023-09-18T09:14:37;20.80;99.90
15713;DHT22;7957;51.608;6.916;2023-09-18T09:17:04;20.90;99.90
15713;DHT22;7957;51.608;6.916;2023-09-18T09:19:33;20.90;99.90
15713;DHT22;7957;51.608;6.916;2023-09-18T09:22:02;21.00;99.90
15713;DHT22;7957;51.608;6.916;2023-09-18T09:24:37;21.00;99.90
15713;DHT22;7957;51.608;6.916;2023-09-18T09:27:04;21.00;99.90
15713;DHT22;7957;51.608;6.916;2023-09-18T09:29:33;21.10;99.90
15713;DHT22;7957;51.608;6.916;2023-09-18T09:32:12;21.20;99.90
15713;DHT22;7957;51.608;6.916;2023-09-18T09:34:43;21.30;99.90
15713;DHT22;7957;51.608;6.916;2023-09-18T09:37:12;21.40;99.90
15713;DHT22;7957;51.608;6.916;2023-09-18T09:39:47;21.50;99.90
15713;DHT22;7957;51.608;6.916;2023-09-18T09:42:16;21.50;99.90
15713;DHT22;7957;51.608;6.916;2023-09-18T09:45:02;21.60;99.90
15713;DHT22;7957;51.608;6.916;2023-09-18T09:47:33;21.60;99.90
15713;DHT22;7957;51.608;6.916;2023-09-18T09:50:06;21.60;99.90
15713;DHT22;7957;51.608;6.916;2023-09-18T09:52:35;21.70;99.90
15713;DHT22;7957;51.608;6.916;2023-09-18T09:55:03;21.60;99.90
15713;DHT22;7957;51.608;6.916;2023-09-18T09:57:30;21.70;99.90
15713;DHT22;7957;51.608;6.916;2023-09-18T10:00:05;21.70;99.90
15713;DHT22;7957;51.608;6.916;2023-09-18T10:02:49;21.70;99.90
15713;DHT22;7957;51.608;6.916;2023-09-18T10:05:18;21.70;99.90
15713;DHT22;7957;51.608;6.916;2023-09-18T10:07:46;21.70;99.90
15713;DHT22;7957;51.608;6.916;2023-09-18T10:10:13;21.70;99.90
15713;DHT22;7957;51.608;6.916;2023-09-18T10:12:40;21.80;99.90
15713;DHT22;7957;51.608;6.916;2023-09-18T10:15:11;21.80;99.90
15713;DHT22;7957;51.608;6.916;2023-09-18T10:17:42;21.80;99.90
15713;DHT22;7957;51.608;6.916;2023-09-18T10:20:12;21.90;99.90
15713;DHT22;7957;51.608;6.916;2023-09-18T10:22:46;21.90;99.90
15713;DHT22;7957;51.608;6.916;2023-09-18T10:25:17;21.90;99.90
15713;DHT22;7957;51.608;6.916;2023-09-18T10:27:46;21.90;99.90
15713;DHT22;7957;51.608;6.916;2023-09-18T10:30:16;22.00;99.90
15713;DHT22;7957;51.608;6.916;2023-09-18T10:32:45;22.00;99.90
15713;DHT22;7957;51.608;6.916;2023-09-18T10:35:13;22.00;99.90
15713;DHT22;7957;51.608;6.916;2023-09-18T10:37:42;22.00;99.90
15713;DHT22;7957;51.608;6.916;2023-09-18T10:40:09;22.00;99.90
15713;DHT22;7957;51.608;6.916;2023-09-18T10:42:39;22.10;99.90
15713;DHT22;7957;51.608;6.916;2023-09-18T10:45:07;22.10;99.90
15713;DHT22;7957;51.608;6.916;2023-09-18T10:47:38;22.10;99.90
15713;DHT22;7957;51.608;6.916;2023-09-18T10:50:06;22.10;99.90
15713;DHT22;7957;51.608;6.916;2023-09-18T10:52:43;22.10;99.90
15713;DHT22;7957;51.608;6.916;2023-09-18T10:55:12;22.10;99.90
15713;DHT22;7957;51.608;6.916;2023-09-18T10:57:49;22.10;99.90
15713;DHT22;7957;51.608;6.916;2023-09-18T11:00:17;22.10;99.90
15713;DHT22;7957;51.608;6.916;2023-09-18T11:02:50;22.10;99.90
15713;DHT22;7957;51.608;6.916;2023-09-18T11:05:28;22.20;99.90
15713;DHT22;7957;51.608;6.916;2023-09-18T11:08:27;22.20;99.90
15713;DHT22;7957;51.608;6.916;2023-09-18T11:11:02;22.40;99.90
15713;DHT22;7957;51.608;6.916;2023-09-18T11:13:36;22.60;99.90
15713;DHT22;7957;51.608;6.916;2023-09-18T11:16:16;22.70;99.90
15713;DHT22;7957;51.608;6.916;2023-09-18T11:18:48;22.90;99.90
15713;DHT22;7957;51.608;6.916;2023-09-18T11:21:18;23.10;99.90
15713;DHT22;7957;51.608;6.916;2023-09-18T11:23:58;23.60;99.90
15713;DHT22;7957;51.608;6.916;2023-09-18T11:26:24;23.90;99.90
15713;DHT22;7957;51.608;6.916;2023-09-18T11:28:58;24.40;99.90
15713;DHT22;7957;51.608;6.916;2023-09-18T11:31:41;24.50;99.90
15713;DHT22;7957;51.608;6.916;2023-09-18T11:34:20;24.50;99.90
15713;DHT22;7957;51.608;6.916;2023-09-18T11:36:48;24.60;99.90
15713;DHT22;7957;51.608;6.916;2023-09-18T11:39:33;24.70;99.90
15713;DHT22;7957;51.608;6.916;2023-09-18T11:42:10;24.80;99.90
15713;DHT22;7957;51.608;6.916;2023-09-18T11:44:43;25.10;99.90
15713;DHT22;7957;51.608;6.916;2023-09-18T11:47:13;25.30;1.00
15713;DHT22;7957;51.608;6.916;2023-09-18T11:49:49;25.20;99.90
15713;DHT22;7957;51.608;6.916;2023-09-18T11:52:18;25.40;1.00
15713;DHT22;7957;51.608;6.916;2023-09-18T11:54:46;25.60;99.90
15713;DHT22;7957;51.608;6.916;2023-09-18T11:57:14;25.70;1.00
15713;DHT22;7957;51.608;6.916;2023-09-18T11:59:44;25.90;99.90
15713;DHT22;7957;51.608;6.916;2023-09-18T12:02:12;25.90;99.90
15713;DHT22;7957;51.608;6.916;2023-09-18T12:04:47;26.10;1.00
15713;DHT22;7957;51.608;6.916;2023-09-18T12:07:14;26.50;1.00
15713;DHT22;7957;51.608;6.916;2023-09-18T12:09:42;26.80;1.00
15713;DHT22;7957;51.608;6.916;2023-09-18T12:12:09;26.90;99.90
15713;DHT22;7957;51.608;6.916;2023-09-18T12:14:39;27.00;59.00
15713;DHT22;7957;51.608;6.916;2023-09-18T12:17:07;27.10;1.00
15713;DHT22;7957;51.608;6.916;2023-09-18T12:19:34;27.20;1.00
15713;DHT22;7957;51.608;6.916;2023-09-18T12:22:03;27.30;1.00
15713;DHT22;7957;51.608;6.916;2023-09-18T12:24:30;27.40;99.90
15713;DHT22;7957;51.608;6.916;2023-09-18T12:26:57;27.50;99.90
15713;DHT22;7957;51.608;6.916;2023-09-18T12:29:25;27.60;99.90
15713;DHT22;7957;51.608;6.916;2023-09-18T12:31:52;27.50;76.50
15713;DHT22;7957;51.608;6.916;2023-09-18T12:34:22;27.30;1.00
15713;DHT22;7957;51.608;6.916;2023-09-18T12:36:49;27.00;1.00
15713;DHT22;7957;51.608;6.916;2023-09-18T12:39:18;26.90;1.00
15713;DHT22;7957;51.608;6.916;2023-09-18T12:41:47;26.80;1.00
15713;DHT22;7957;51.608;6.916;2023-09-18T12:44:14;26.70;1.00
15713;DHT22;7957;51.608;6.916;2023-09-18T12:46:42;26.50;1.00
15713;DHT22;7957;51.608;6.916;2023-09-18T12:49:17;26.50;99.90
15713;DHT22;7957;51.608;6.916;2023-09-18T12:51:56;26.40;99.90
15713;DHT22;7957;51.608;6.916;2023-09-18T12:54:38;26.20;99.90
15713;DHT22;7957;51.608;6.916;2023-09-18T12:57:06;26.10;99.90
15713;DHT22;7957;51.608;6.916;2023-09-18T12:59:33;26.00;99.90
15713;DHT22;7957;51.608;6.916;2023-09-18T13:02:01;25.90;95.00
15713;DHT22;7957;51.608;6.916;2023-09-18T13:04:30;25.70;2.50
15713;DHT22;7957;51.608;6.916;2023-09-18T13:07:06;25.60;1.00
15713;DHT22;7957;51.608;6.916;2023-09-18T13:09:33;25.40;1.00
15713;DHT22;7957;51.608;6.916;2023-09-18T13:12:03;25.30;1.00
15713;DHT22;7957;51.608;6.916;2023-09-18T13:14:57;25.30;1.00
15713;DHT22;7957;51.608;6.916;2023-09-18T13:17:25;25.20;1.00
15713;DHT22;7957;51.608;6.916;2023-09-18T13:19:52;25.10;1.00
15713;DHT22;7957;51.608;6.916;2023-09-18T13:22:23;25.00;1.00
15713;DHT22;7957;51.608;6.916;2023-09-18T13:24:55;24.90;1.00
15713;DHT22;7957;51.608;6.916;2023-09-18T13:27:24;24.90;1.00
15713;DHT22;7957;51.608;6.916;2023-09-18T13:29:52;24.90;1.00
15713;DHT22;7957;51.608;6.916;2023-09-18T13:32:20;24.80;1.00
15713;DHT22;7957;51.608;6.916;2023-09-18T13:34:47;24.70;1.00
15713;DHT22;7957;51.608;6.916;2023-09-18T13:37:14;24.60;1.00
15713;DHT22;7957;51.608;6.916;2023-09-18T13:39:42;24.50;1.00
15713;DHT22;7957;51.608;6.916;2023-09-18T13:42:11;24.50;1.00
15713;DHT22;7957;51.608;6.916;2023-09-18T13:44:39;24.50;1.00
15713;DHT22;7957;51.608;6.916;2023-09-18T13:47:06;24.50;1.00
15713;DHT22;7957;51.608;6.916;2023-09-18T13:49:33;24.40;1.00
15713;DHT22;7957;51.608;6.916;2023-09-18T13:52:00;24.40;1.00
15713;DHT22;7957;51.608;6.916;2023-09-18T13:54:27;24.40;1.00
15713;DHT22;7957;51.608;6.916;2023-09-18T13:56:55;24.40;1.00
15713;DHT22;7957;51.608;6.916;2023-09-18T13:59:22;24.30;1.00
15713;DHT22;7957;51.608;6.916;2023-09-18T14:01:50;24.30;1.00
15713;DHT22;7957;51.608;6.916;2023-09-18T14:04:18;24.30;1.00
15713;DHT22;7957;51.608;6.916;2023-09-18T14:06:45;24.30;1.00
15713;DHT22;7957;51.608;6.916;2023-09-18T14:09:12;24.20;99.90
15713;DHT22;7957;51.608;6.916;2023-09-18T14:11:39;24.20;99.90
15713;DHT22;7957;51.608;6.916;2023-09-18T14:14:05;24.20;99.90
15713;DHT22;7957;51.608;6.916;2023-09-18T14:16:33;24.10;99.90
15713;DHT22;7957;51.608;6.916;2023-09-18T14:19:01;24.00;99.90
15713;DHT22;7957;51.608;6.916;2023-09-18T14:21:28;24.00;99.90
15713;DHT22;7957;51.608;6.916;2023-09-18T14:23:59;24.00;99.90
15713;DHT22;7957;51.608;6.916;2023-09-18T14:26:26;23.90;99.90
15713;DHT22;7957;51.608;6.916;2023-09-18T14:28:53;23.90;99.90
15713;DHT22;7957;51.608;6.916;2023-09-18T14:31:21;23.90;99.90
15713;DHT22;7957;51.608;6.916;2023-09-18T14:33:47;23.90;99.90
15713;DHT22;7957;51.608;6.916;2023-09-18T14:36:16;23.80;99.90
15713;DHT22;7957;51.608;6.916;2023-09-18T14:38:43;23.80;99.90
15713;DHT22;7957;51.608;6.916;2023-09-18T14:41:10;23.80;99.90
15713;DHT22;7957;51.608;6.916;2023-09-18T14:43:38;23.70;99.90
15713;DHT22;7957;51.608;6.916;2023-09-18T14:46:05;23.70;99.90
15713;DHT22;7957;51.608;6.916;2023-09-18T14:48:32;23.60;99.90
15713;DHT22;7957;51.608;6.916;2023-09-18T14:51:00;23.60;99.90
15713;DHT22;7957;51.608;6.916;2023-09-18T14:53:28;23.60;93.90
15713;DHT22;7957;51.608;6.916;2023-09-18T14:55:55;23.50;91.70
15713;DHT22;7957;51.608;6.916;2023-09-18T14:58:23;23.50;60.30
15713;DHT22;7957;51.608;6.916;2023-09-18T15:00:50;23.50;73.90
15713;DHT22;7957;51.608;6.916;2023-09-18T15:03:17;23.40;99.20
15713;DHT22;7957;51.608;6.916;2023-09-18T15:05:44;23.40;97.50
15713;DHT22;7957;51.608;6.916;2023-09-18T15:08:16;23.40;94.60
15713;DHT22;7957;51.608;6.916;2023-09-18T15:10:47;23.30;96.00
15713;DHT22;7957;51.608;6.916;2023-09-18T15:13:14;23.30;81.40
15713;DHT22;7957;51.608;6.916;2023-09-18T15:15:41;23.20;61.10
15713;DHT22;7957;51.608;6.916;2023-09-18T15:18:08;23.20;60.40
15713;DHT22;7957;51.608;6.916;2023-09-18T15:20:35;23.10;52.40
15713;DHT22;7957;51.608;6.916;2023-09-18T15:23:04;23.10;39.60
15713;DHT22;7957;51.608;6.916;2023-09-18T15:25:33;23.00;15.60
15713;DHT22;7957;51.608;6.916;2023-09-18T15:28:05;23.00;5.60
15713;DHT22;7957;51.608;6.916;2023-09-18T15:30:32;22.90;3.50
15713;DHT22;7957;51.608;6.916;2023-09-18T15:32:59;22.90;1.00
15713;DHT22;7957;51.608;6.916;2023-09-18T15:35:27;22.90;1.00
15713;DHT22;7957;51.608;6.916;2023-09-18T15:37:54;22.80;14.60
15713;DHT22;7957;51.608;6.916;2023-09-18T15:40:21;22.80;24.40
15713;DHT22;7957;51.608;6.916;2023-09-18T15:42:49;22.80;29.10
15713;DHT22;7957;51.608;6.916;2023-09-18T15:45:18;22.70;30.80
15713;DHT22;7957;51.608;6.916;2023-09-18T15:47:45;22.70;13.30
15713;DHT22;7957;51.608;6.916;2023-09-18T15:50:12;22.70;17.10
15713;DHT22;7957;51.608;6.916;2023-09-18T15:52:40;22.70;15.50
15713;DHT22;7957;51.608;6.916;2023-09-18T15:55:07;22.60;53.80
15713;DHT22;7957;51.608;6.916;2023-09-18T15:57:36;22.60;51.90
15713;DHT22;7957;51.608;6.916;2023-09-18T16:00:05;22.60;14.60
15713;DHT22;7957;51.608;6.916;2023-09-18T16:02:35;22.60;17.80
15713;DHT22;7957;51.608;6.916;2023-09-18T16:05:03;22.60;24.20
15713;DHT22;7957;51.608;6.916;2023-09-18T16:07:32;22.60;50.00
15713;DHT22;7957;51.608;6.916;2023-09-18T16:09:59;22.60;55.20
15713;DHT22;7957;51.608;6.916;2023-09-18T16:12:26;22.50;57.30
15713;DHT22;7957;51.608;6.916;2023-09-18T16:14:53;22.50;51.60
15713;DHT22;7957;51.608;6.916;2023-09-18T16:17:20;22.50;61.20
15713;DHT22;7957;51.608;6.916;2023-09-18T16:19:49;22.50;99.90
15713;DHT22;7957;51.608;6.916;2023-09-18T16:22:17;22.40;99.90
15713;DHT22;7957;51.608;6.916;2023-09-18T16:24:47;22.40;99.90
15713;DHT22;7957;51.608;6.916;2023-09-18T16:27:14;22.40;99.90
15713;DHT22;7957;51.608;6.916;2023-09-18T16:29:41;22.30;99.90
15713;DHT22;7957;51.608;6.916;2023-09-18T16:32:08;22.30;99.90
15713;DHT22;7957;51.608;6.916;2023-09-18T16:34:38;22.30;99.90
15713;DHT22;7957;51.608;6.916;2023-09-18T16:37:16;22.20;99.90
15713;DHT22;7957;51.608;6.916;2023-09-18T16:39:43;22.20;82.70
15713;DHT22;7957;51.608;6.916;2023-09-18T16:42:10;22.20;70.20
15713;DHT22;7957;51.608;6.916;2023-09-18T16:44:37;22.10;64.40
15713;DHT22;7957;51.608;6.916;2023-09-18T16:47:06;22.10;71.40
15713;DHT22;7957;51.608;6.916;2023-09-18T16:49:57;22.00;88.60
15713;DHT22;7957;51.608;6.916;2023-09-18T16:52:41;22.00;97.80
15713;DHT22;7957;51.608;6.916;2023-09-18T16:55:11;21.90;99.90
15713;DHT22;7957;51.608;6.916;2023-09-18T16:57:38;21.90;99.90
15713;DHT22;7957;51.608;6.916;2023-09-18T17:00:06;21.90;99.90
15713;DHT22;7957;51.608;6.916;2023-09-18T17:02:36;21.80;99.90
15713;DHT22;7957;51.608;6.916;2023-09-18T17:05:04;21.80;99.90
15713;DHT22;7957;51.608;6.916;2023-09-18T17:07:31;21.80;99.90
15713;DHT22;7957;51.608;6.916;2023-09-18T17:10:02;21.70;99.90
15713;DHT22;7957;51.608;6.916;2023-09-18T17:12:30;21.70;99.90
15713;DHT22;7957;51.608;6.916;2023-09-18T17:15:04;21.70;99.90
15713;DHT22;7957;51.608;6.916;2023-09-18T17:17:33;21.70;99.90
15713;DHT22;7957;51.608;6.916;2023-09-18T17:20:01;21.70;99.90
15713;DHT22;7957;51.608;6.916;2023-09-18T17:22:33;21.70;99.90
15713;DHT22;7957;51.608;6.916;2023-09-18T17:25:02;21.60;99.90
15713;DHT22;7957;51.608;6.916;2023-09-18T17:27:33;21.60;99.90
15713;DHT22;7957;51.608;6.916;2023-09-18T17:30:10;21.60;99.90
15713;DHT22;7957;51.608;6.916;2023-09-18T17:32:44;21.60;99.90
15713;DHT22;7957;51.608;6.916;2023-09-18T17:35:12;21.60;99.90
15713;DHT22;7957;51.608;6.916;2023-09-18T17:37:42;21.50;99.90
15713;DHT22;7957;51.608;6.916;2023-09-18T17:40:26;21.40;1.00
15713;DHT22;7957;51.608;6.916;2023-09-18T17:42:53;21.20;1.00
15713;DHT22;7957;51.608;6.916;2023-09-18T17:45:30;21.10;1.00
15713;DHT22;7957;51.608;6.916;2023-09-18T17:47:57;21.00;1.00
15713;DHT22;7957;51.608;6.916;2023-09-18T17:50:24;20.90;1.00
15713;DHT22;7957;51.608;6.916;2023-09-18T17:52:53;20.80;1.00
15713;DHT22;7957;51.608;6.916;2023-09-18T17:55:23;20.80;1.00
15713;DHT22;7957;51.608;6.916;2023-09-18T17:57:50;20.70;1.00
15713;DHT22;7957;51.608;6.916;2023-09-18T18:00:18;20.60;1.00
15713;DHT22;7957;51.608;6.916;2023-09-18T18:02:47;20.60;1.00
15713;DHT22;7957;51.608;6.916;2023-09-18T18:05:15;20.60;43.80
15713;DHT22;7957;51.608;6.916;2023-09-18T18:07:41;20.50;99.90
15713;DHT22;7957;51.608;6.916;2023-09-18T18:10:09;20.50;99.90
15713;DHT22;7957;51.608;6.916;2023-09-18T18:12:39;20.40;99.90
15713;DHT22;7957;51.608;6.916;2023-09-18T18:15:07;20.40;99.90
15713;DHT22;7957;51.608;6.916;2023-09-18T18:17:37;20.30;99.90
15713;DHT22;7957;51.608;6.916;2023-09-18T18:20:05;20.30;99.90
15713;DHT22;7957;51.608;6.916;2023-09-18T18:22:34;20.30;1.00
15713;DHT22;7957;51.608;6.916;2023-09-18T18:25:01;20.20;1.00
15713;DHT22;7957;51.608;6.916;2023-09-18T18:27:29;20.20;1.00
15713;DHT22;7957;51.608;6.916;2023-09-18T18:30:03;20.20;1.00
15713;DHT22;7957;51.608;6.916;2023-09-18T18:32:37;20.20;1.00
15713;DHT22;7957;51.608;6.916;2023-09-18T18:35:12;20.10;1.00
15713;DHT22;7957;51.608;6.916;2023-09-18T18:37:56;20.10;21.30
15713;DHT22;7957;51.608;6.916;2023-09-18T18:40:25;20.10;99.90
15713;DHT22;7957;51.608;6.916;2023-09-18T18:42:57;20.10;99.90
15713;DHT22;7957;51.608;6.916;2023-09-18T18:45:31;20.00;99.90
15713;DHT22;7957;51.608;6.916;2023-09-18T18:48:06;20.00;99.90
15713;DHT22;7957;51.608;6.916;2023-09-18T18:50:42;20.00;99.90
15713;DHT22;7957;51.608;6.916;2023-09-18T18:53:17;19.90;1.00
15713;DHT22;7957;51.608;6.916;2023-09-18T18:55:56;19.90;1.00
15713;DHT22;7957;51.608;6.916;2023-09-18T18:58:25;19.90;1.00
15713;DHT22;7957;51.608;6.916;2023-09-18T19:01:06;19.90;1.00
15713;DHT22;7957;51.608;6.916;2023-09-18T19:03:48;19.90;1.00
15713;DHT22;7957;51.608;6.916;2023-09-18T19:06:23;19.90;1.00
15713;DHT22;7957;51.608;6.916;2023-09-18T19:08:50;19.90;15.80
15713;DHT22;7957;51.608;6.916;2023-09-18T19:11:22;19.90;99.90
15713;DHT22;7957;51.608;6.916;2023-09-18T19:14:12;19.80;99.90
15713;DHT22;7957;51.608;6.916;2023-09-18T19:16:46;19.80;99.90
15713;DHT22;7957;51.608;6.916;2023-09-18T19:19:18;19.80;99.90
15713;DHT22;7957;51.608;6.916;2023-09-18T19:21:50;19.80;99.90
15713;DHT22;7957;51.608;6.916;2023-09-18T19:24:22;19.70;99.90
15713;DHT22;7957;51.608;6.916;2023-09-18T19:26:52;19.70;1.00
15713;DHT22;7957;51.608;6.916;2023-09-18T19:29:26;19.70;1.00
15713;DHT22;7957;51.608;6.916;2023-09-18T19:32:02;19.70;1.00
15713;DHT22;7957;51.608;6.916;2023-09-18T19:34:30;19.60;1.00
15713;DHT22;7957;51.608;6.916;2023-09-18T19:36:59;19.70;1.00
15713;DHT22;7957;51.608;6.916;2023-09-18T19:39:34;19.60;1.00
15713;DHT22;7957;51.608;6.916;2023-09-18T19:42:04;19.60;93.80
15713;DHT22;7957;51.608;6.916;2023-09-18T19:44:37;19.60;99.90
15713;DHT22;7957;51.608;6.916;2023-09-18T19:47:15;19.60;99.90
15713;DHT22;7957;51.608;6.916;2023-09-18T19:49:47;19.50;99.90
15713;DHT22;7957;51.608;6.916;2023-09-18T19:52:24;19.50;99.90
15713;DHT22;7957;51.608;6.916;2023-09-18T19:55:02;19.50;1.00
15713;DHT22;7957;51.608;6.916;2023-09-18T19:57:47;19.40;1.00
15713;DHT22;7957;51.608;6.916;2023-09-18T20:00:45;19.40;1.00
15713;DHT22;7957;51.608;6.916;2023-09-18T20:03:39;19.40;1.00
15713;DHT22;7957;51.608;6.916;2023-09-18T20:12:39;19.20;99.90